sensor_id;sensor_type;location;lat;lon;timestamp;temperature;humidity
7762;DHT22;3925;48.636;9.516;2022-09-02T21:45:11;18.60;85.60
7762;DHT22;3925;48.636;9.516;2022-09-02T21:51:03;18.60;85.60
7762;DHT22;3925;48.636;9.516;2022-09-02T21:53:45;18.60;84.70
7762;DHT22;3925;48.636;9.516;2022-09-02T21:56:25;18.60;84.20
7762;DHT22;3925;48.636;9.516;2022-09-02T21:59:29;18.60;84.10
7762;DHT22;3925;48.636;9.516;2022-09-02T22:02:03;18.60;84.30
7762;DHT22;3925;48.636;9.516;2022-09-02T22:04:44;18.60;84.00
7762;DHT22;3925;48.636;9.516;2022-09-02T22:07:17;18.70;83.60
7762;DHT22;3925;48.636;9.516;2022-09-02T22:09:48;18.70;83.80
7762;DHT22;3925;48.636;9.516;2022-09-02T22:12:16;18.60;83.70
7762;DHT22;3925;48.636;9.516;2022-09-02T22:14:48;18.60;84.20
7762;DHT22;3925;48.636;9.516;2022-09-02T22:17:31;18.60;84.20
7762;DHT22;3925;48.636;9.516;2022-09-02T22:20:02;18.60;83.80
7762;DHT22;3925;48.636;9.516;2022-09-02T22:22:37;18.70;83.80
7762;DHT22;3925;48.636;9.516;2022-09-02T22:25:05;18.70;83.50
7762;DHT22;3925;48.636;9.516;2022-09-02T22:27:37;18.70;84.00
7762;DHT22;3925;48.636;9.516;2022-09-02T22:30:08;18.60;84.70
7762;DHT22;3925;48.636;9.516;2022-09-02T22:32:39;18.70;84.30
7762;DHT22;3925;48.636;9.516;2022-09-02T22:35:14;18.70;84.70
7762;DHT22;3925;48.636;9.516;2022-09-02T22:37:47;18.70;85.70
7762;DHT22;3925;48.636;9.516;2022-09-02T22:40:21;18.70;85.20
7762;DHT22;3925;48.636;9.516;2022-09-02T22:42:51;18.70;85.50
7762;DHT22;3925;48.636;9.516;2022-09-02T22:45:23;18.70;85.00
7762;DHT22;3925;48.636;9.516;2022-09-02T22:48:15;18.70;85.60
7762;DHT22;3925;48.636;9.516;2022-09-02T22:51:03;18.70;86.10
7762;DHT22;3925;48.636;9.516;2022-09-02T22:53:49;18.60;86.30
7762;DHT22;3925;48.636;9.516;2022-09-02T22:56:18;18.60;85.90
7762;DHT22;3925;48.636;9.516;2022-09-02T22:59:10;18.70;85.70
7762;DHT22;3925;48.636;9.516;2022-09-02T23:01:49;18.70;86.10
7762;DHT22;3925;48.636;9.516;2022-09-02T23:04:34;18.60;86.50
7762;DHT22;3925;48.636;9.516;2022-09-02T23:07:03;18.60;86.40
7762;DHT22;3925;48.636;9.516;2022-09-02T23:09:30;18.60;86.40
7762;DHT22;3925;48.636;9.516;2022-09-02T23:12:03;18.60;86.20
7762;DHT22;3925;48.636;9.516;2022-09-02T23:14:39;18.60;88.20
7762;DHT22;3925;48.636;9.516;2022-09-02T23:17:28;18.60;87.40
7762;DHT22;3925;48.636;9.516;2022-09-02T23:20:08;18.60;87.50
7762;DHT22;3925;48.636;9.516;2022-09-02T23:22:52;18.60;87.20
7762;DHT22;3925;48.636;9.516;2022-09-02T23:25:34;18.60;87.00
7762;DHT22;3925;48.636;9.516;2022-09-02T23:28:15;18.60;87.50
7762;DHT22;3925;48.636;9.516;2022-09-02T23:30:51;18.60;88.00
7762;DHT22;3925;48.636;9.516;2022-09-02T23:33:36;18.60;86.50
7762;DHT22;3925;48.636;9.516;2022-09-02T23:36:13;18.70;86.30
7762;DHT22;3925;48.636;9.516;2022-09-02T23:39:03;18.70;86.60
7762;DHT22;3925;48.636;9.516;2022-09-02T23:41:31;18.70;86.50
7762;DHT22;3925;48.636;9.516;2022-09-02T23:44:01;18.70;86.70
7762;DHT22;3925;48.636;9.516;2022-09-02T23:46:37;18.70;86.90
7762;DHT22;3925;48.636;9.516;2022-09-02T23:49:15;18.60;87.30
7762;DHT22;3925;48.636;9.516;2022-09-02T23:51:55;18.60;86.80
7762;DHT22;3925;48.636;9.516;2022-09-02T23:54:35;18.60;87.20
7762;DHT22;3925;48.636;9.516;2022-09-02T23:57:19;18.60;87.90
